Time;durP1;ratioP1;P1;durP2;ratioP2;P2;SDS_P1;SDS_P2;PMS_P1;PMS_P2;Temp;Humidity;BMP_temperature;BMP_pressure;BME280_temperature;BME280_humidity;BME280_pressure;Samples;Min_cycle;Max_cycle;Signal;HPM_P1;HPM_P2
2022/05/20 00:01:04;327335.00;1.09;564.91;73578.00;0.25;127.94;;;;;23.70;1.00;;;;;;2280838;61;971;-87
2022/05/20 00:03:32;197292.00;0.66;341.26;74023.00;0.25;128.71;;;;;23.70;1.00;;;;;;2280728;61;1284;-87
2022/05/20 00:05:59;200387.00;0.67;346.59;80113.00;0.27;139.23;;;;;23.70;1.00;;;;;;2280750;61;1800;-87
2022/05/20 00:08:28;213047.00;0.71;368.38;56567.00;0.19;98.54;;;;;23.60;1.00;;;;;;2280707;61;1599;-87
2022/05/20 00:10:56;28445.00;0.09;49.89;0.00;0.00;0.62;;;;;23.40;1.00;;;;;;2280740;61;2130;-88
2022/05/20 00:13:24;155666.00;0.52;269.57;0.00;0.00;0.62;;;;;23.30;1.00;;;;;;2280778;61;1348;-86
2022/05/20 00:15:51;142226.00;0.47;246.41;0.00;0.00;0.62;;;;;23.30;1.00;;;;;;2280761;61;1089;-86
2022/05/20 00:18:19;86340.00;0.29;149.99;0.00;0.00;0.62;;;;;23.10;1.00;;;;;;2280629;61;2002;-87
2022/05/20 00:20:46;183912.00;0.61;318.23;0.00;0.00;0.62;;;;;23.10;1.00;;;;;;2280649;61;1015;-88
2022/05/20 00:23:13;38032.00;0.13;66.48;0.00;0.00;0.62;;;;;23.10;1.00;;;;;;2280666;61;1706;-88
2022/05/20 00:25:47;256824.00;0.86;443.69;32831.00;0.11;57.48;;;;;23.10;1.00;;;;;;2280770;61;1026;-87
2022/05/20 00:28:15;47980.00;0.16;83.69;0.00;0.00;0.62;;;;;23.20;1.00;;;;;;2280737;61;1010;-88
2022/05/20 00:30:43;0.00;0.00;0.62;0.00;0.00;0.62;;;;;23.10;1.00;;;;;;2280701;61;1129;-87
2022/05/20 00:33:10;232120.00;0.77;401.20;3504.00;0.01;6.69;;;;;23.20;1.00;;;;;;2280692;61;1293;-87
2022/05/20 00:35:37;57651.00;0.19;100.42;0.00;0.00;0.62;;;;;23.30;1.00;;;;;;2280740;61;1004;-91
2022/05/20 00:38:05;111226.00;0.37;192.95;0.00;0.00;0.62;;;;;23.10;1.00;;;;;;2280698;61;1989;-88
2022/05/20 00:40:33;906139.00;3.02;1566.90;29848.00;0.10;52.32;;;;;23.00;1.00;;;;;;2280660;61;1718;-88
2022/05/20 00:43:27;1570474.00;5.23;2776.44;106072.00;0.35;184.05;;;;;22.90;1.00;;;;;;2280458;61;1264;-87
2022/05/20 00:45:57;615992.00;2.05;1061.84;98703.00;0.33;171.33;;;;;22.90;1.00;;;;;;2280495;61;1125;-87
2022/05/20 00:48:24;519163.00;1.73;894.82;95839.00;0.32;166.39;;;;;23.00;1.00;;;;;;2280589;61;1700;-87
2022/05/20 00:50:57;1095193.00;3.65;1901.83;59764.00;0.20;104.07;;;;;23.10;1.00;;;;;;2280645;61;1109;-87
2022/05/20 00:53:29;1088757.00;3.63;1890.33;58247.00;0.19;101.45;;;;;23.00;1.00;;;;;;2280693;61;1348;-87
2022/05/20 00:55:57;1428754.00;4.76;2509.76;189020.00;0.63;327.02;;;;;23.00;1.00;;;;;;2280636;61;1010;-88
2022/05/20 00:58:28;1150705.00;3.84;2001.34;109412.00;0.36;189.82;;;;;23.00;1.00;;;;;;2280587;61;1920;-90
2022/05/20 01:00:56;980773.00;3.27;1698.45;128494.00;0.43;222.73;;;;;22.80;1.00;;;;;;2280678;61;952;-87
2022/05/20 01:03:29;548767.00;1.83;945.83;140626.00;0.47;243.65;;;;;22.90;1.00;;;;;;2280595;61;1359;-88
2022/05/20 01:05:57;540995.00;1.80;932.44;73920.00;0.25;128.53;;;;;22.90;1.00;;;;;;2280667;61;885;-87
2022/05/20 01:08:28;340957.00;1.14;588.32;72386.00;0.24;125.88;;;;;23.00;1.00;;;;;;2280614;61;1266;-86
2022/05/20 01:10:55;78944.00;0.26;137.21;0.00;0.00;0.62;;;;;23.00;1.00;;;;;;2280591;61;1719;-87
2022/05/20 01:13:27;196858.00;0.66;340.52;26745.00;0.09;46.95;;;;;23.10;1.00;;;;;;2280530;61;1375;-87
2022/05/20 01:15:55;284303.00;0.95;490.94;69680.00;0.23;121.21;;;;;23.10;1.00;;;;;;2280633;61;1096;-87
2022/05/20 01:18:24;25868.00;0.09;45.43;0.00;0.00;0.62;;;;;23.20;1.00;;;;;;2280519;61;1985;-86
2022/05/20 01:20:55;157777.00;0.53;273.21;49837.00;0.17;86.90;;;;;23.00;1.00;;;;;;2280515;61;1174;-87
2022/05/20 01:23:25;139732.00;0.47;242.11;37805.00;0.13;66.09;;;;;23.00;1.00;;;;;;2280456;61;1414;-88
2022/05/20 01:25:55;51803.00;0.17;90.30;0.00;0.00;0.62;;;;;22.90;1.00;;;;;;2280545;61;1046;-87
2022/05/20 01:28:24;27432.00;0.09;48.14;0.00;0.00;0.62;;;;;22.80;1.00;;;;;;2280489;61;1452;-87
2022/05/20 01:30:55;90359.00;0.30;156.93;0.00;0.00;0.62;;;;;22.80;1.00;;;;;;2280560;61;1032;-88
2022/05/20 01:33:25;278186.00;0.93;480.42;43461.00;0.14;75.88;;;;;22.80;1.00;;;;;;2280487;61;1402;-87
2022/05/20 01:35:53;124915.00;0.42;216.56;0.00;0.00;0.62;;;;;22.90;1.00;;;;;;2280499;61;1722;-87
2022/05/20 01:38:20;36309.00;0.12;63.50;0.00;0.00;0.62;;;;;23.00;1.00;;;;;;2280511;61;1982;-88
2022/05/20 01:40:52;166169.00;0.55;287.67;0.00;0.00;0.62;;;;;23.00;1.00;;;;;;2280537;61;1050;-88
2022/05/20 01:43:41;305887.00;1.02;528.04;98084.00;0.33;170.26;;;;;22.80;1.00;;;;;;2280339;61;1272;-89
2022/05/20 01:46:19;236119.00;0.79;408.08;67441.00;0.22;117.34;;;;;22.60;1.00;;;;;;2280462;61;1038;-88
2022/05/20 01:48:59;197060.00;0.66;340.86;0.00;0.00;0.62;;;;;22.60;1.00;;;;;;2280556;61;995;-87
2022/05/20 01:51:34;124468.00;0.41;215.79;0.00;0.00;0.62;;;;;22.50;1.00;;;;;;2280425;61;1046;-88
2022/05/20 01:54:09;182397.00;0.61;315.62;31910.00;0.11;55.89;;;;;22.40;1.00;;;;;;2280443;61;1490;-87
2022/05/20 01:56:45;152451.00;0.51;264.03;0.00;0.00;0.62;;;;;22.40;1.00;;;;;;2280419;61;919;-86
2022/05/20 01:59:18;191169.00;0.64;330.72;0.00;0.00;0.62;;;;;22.10;1.00;;;;;;2280356;61;1923;-88
2022/05/20 02:01:52;50111.00;0.17;87.38;0.00;0.00;0.62;;;;;22.20;1.00;;;;;;2280513;61;1076;-87
2022/05/20 02:04:24;210309.00;0.70;363.67;0.00;0.00;0.62;;;;;22.30;1.00;;;;;;2280381;61;1667;-87
2022/05/20 02:06:58;257891.00;0.86;445.52;0.00;0.00;0.62;;;;;22.30;1.00;;;;;;2280475;61;1419;-87
2022/05/20 02:09:31;128282.00;0.43;222.37;33938.00;0.11;59.40;;;;;22.30;1.00;;;;;;2280399;61;1579;-87
2022/05/20 02:12:00;312092.00;1.04;538.71;32715.00;0.11;57.28;;;;;22.50;1.00;;;;;;2280380;61;1756;-87
2022/05/20 02:14:33;62185.00;0.21;108.25;0.00;0.00;0.62;;;;;22.40;1.00;;;;;;2280311;61;1451;-89
2022/05/20 02:17:07;76130.00;0.25;132.35;5009.00;0.02;9.30;;;;;22.40;1.00;;;;;;2280355;61;1760;-87
2022/05/20 02:19:38;252598.00;0.84;436.42;6187.00;0.02;11.34;;;;;22.20;1.00;;;;;;2280223;61;2023;-87
2022/05/20 02:22:11;587579.00;1.96;1012.78;42292.00;0.14;73.85;;;;;22.20;1.00;;;;;;2280331;61;1416;-87
2022/05/20 02:24:41;935175.00;3.12;1617.98;63165.00;0.21;109.95;;;;;22.00;1.00;;;;;;2280302;61;1744;-88
2022/05/20 02:27:17;1469476.00;4.90;2585.81;183230.00;0.61;317.05;;;;;22.00;1.00;;;;;;2280335;61;1049;-88
2022/05/20 02:29:56;1147478.00;3.82;1995.54;121166.00;0.40;210.09;;;;;22.00;1.00;;;;;;2280336;61;1607;-87
2022/05/20 02:32:30;1263287.00;4.21;2205.07;80018.00;0.27;139.07;;;;;21.90;1.00;;;;;;2280357;61;1407;-88
2022/05/20 02:34:57;1617619.00;5.39;2866.46;171161.00;0.57;296.27;;;;;21.80;1.00;;;;;;2280307;61;1104;-89
2022/05/20 02:37:27;1322616.00;4.41;2313.56;120869.00;0.40;209.58;;;;;21.90;1.00;;;;;;2280347;61;1013;-87
2022/05/20 02:39:55;1251732.00;4.17;2184.04;155881.00;0.52;269.94;;;;;22.00;1.00;;;;;;2280341;61;1926;-87
2022/05/20 02:42:26;363974.00;1.21;627.88;76928.00;0.26;133.73;;;;;21.90;1.00;;;;;;2280303;61;1387;-88
2022/05/20 02:44:54;477445.00;1.59;823.00;67128.00;0.22;116.80;;;;;21.90;1.00;;;;;;2280233;61;1092;-86
2022/05/20 02:47:21;627832.00;2.09;1082.30;127483.00;0.42;220.99;;;;;22.00;1.00;;;;;;2280321;61;1049;-86
2022/05/20 02:49:48;251507.00;0.84;434.54;77572.00;0.26;134.84;;;;;22.10;1.00;;;;;;2280328;61;1104;-88
2022/05/20 02:52:15;70131.00;0.23;121.99;0.00;0.00;0.62;;;;;22.20;1.00;;;;;;2280237;61;1387;-87
2022/05/20 02:54:42;39877.00;0.13;69.68;0.00;0.00;0.62;;;;;22.10;1.00;;;;;;2280285;61;1042;-88
2022/05/20 02:57:09;67009.00;0.22;116.59;0.00;0.00;0.62;;;;;22.10;1.00;;;;;;2280212;61;1056;-88
2022/05/20 03:05:06;54777.00;0.18;95.45;0.00;0.00;0.62;;;;;22.00;1.00;;;;;;2280292;61;689;-87
2022/05/20 03:07:34;0.00;0.00;0.62;0.00;0.00;0.62;;;;;22.10;1.00;;;;;;2280276;61;1396;-86
2022/05/20 03:10:01;55377.00;0.18;96.48;0.00;0.00;0.62;;;;;22.00;1.00;;;;;;2280547;61;1100;-87
2022/05/20 03:12:28;15251.00;0.05;27.05;0.00;0.00;0.62;;;;;21.90;1.00;;;;;;2280901;61;1249;-87
2022/05/20 03:14:57;7038.00;0.02;12.82;0.00;0.00;0.62;;;;;21.90;1.00;;;;;;2280948;61;1069;-88
2022/05/20 03:17:24;182479.00;0.61;315.76;0.00;0.00;0.62;;;;;21.80;1.00;;;;;;2280999;61;1033;-87
2022/05/20 03:19:51;94355.00;0.31;163.83;0.00;0.00;0.62;;;;;21.80;1.00;;;;;;2280917;61;1927;-86
2022/05/20 03:22:18;112450.00;0.37;195.06;0.00;0.00;0.62;;;;;21.60;1.00;;;;;;2280957;61;1390;-88
2022/05/20 03:24:45;164028.00;0.55;283.98;9140.00;0.03;16.46;;;;;21.30;1.00;;;;;;2280966;61;1026;-87
2022/05/20 03:27:12;405004.00;1.35;698.41;45900.00;0.15;80.09;;;;;21.40;1.00;;;;;;2280844;61;933;-86
2022/05/20 03:29:39;0.00;0.00;0.62;0.00;0.00;0.62;;;;;21.50;1.00;;;;;;2280881;61;947;-86
2022/05/20 03:32:09;202418.00;0.67;350.09;0.00;0.00;0.62;;;;;21.70;1.00;;;;;;2280867;61;1286;-87
2022/05/20 03:34:36;242504.00;0.81;419.06;7143.00;0.02;13.00;;;;;21.80;1.00;;;;;;2280635;61;1135;-87
2022/05/20 03:37:03;53500.00;0.18;93.24;0.00;0.00;0.62;;;;;21.60;1.00;;;;;;2280878;61;1441;-88
2022/05/20 03:39:30;0.00;0.00;0.62;0.00;0.00;0.62;;;;;21.70;1.00;;;;;;2280827;61;2013;-87
2022/05/20 03:41:57;5452.00;0.02;10.07;0.00;0.00;0.62;;;;;21.80;1.00;;;;;;2280877;61;1016;-87
2022/05/20 03:44:25;520905.00;1.74;897.82;115957.00;0.39;201.11;;;;;21.80;1.00;;;;;;2280816;61;1291;-86
2022/05/20 03:46:55;686228.00;2.29;1183.36;77761.00;0.26;135.17;;;;;21.90;1.00;;;;;;2280806;61;1604;-88
2022/05/20 03:49:27;1176130.00;3.92;2047.12;83638.00;0.28;145.32;;;;;21.90;1.00;;;;;;2280771;61;1090;-87
2022/05/20 03:51:55;682357.00;2.27;1176.66;51095.00;0.17;89.08;;;;;22.00;1.00;;;;;;2280791;61;1019;-88
2022/05/20 03:54:27;1115506.00;3.72;1938.18;63161.00;0.21;109.94;;;;;21.90;1.00;;;;;;2280779;61;1521;-88
2022/05/20 03:56:54;986009.00;3.29;1707.71;40499.00;0.13;70.75;;;;;21.80;1.00;;;;;;2280819;61;990;-88
2022/05/20 03:59:21;929871.00;3.10;1608.64;52721.00;0.18;91.89;;;;;21.80;1.00;;;;;;2280725;61;2143;-89
2022/05/20 04:02:00;1346599.00;4.49;2357.64;112789.00;0.38;195.64;;;;;21.90;1.00;;;;;;2280790;61;1081;-88
2022/05/20 04:04:32;1344644.00;4.48;2354.04;151363.00;0.50;262.16;;;;;22.00;1.00;;;;;;2280676;61;1618;-88
2022/05/20 04:06:59;1209596.00;4.03;2107.58;119226.00;0.40;206.75;;;;;21.80;1.00;;;;;;2280730;61;1090;-85
2022/05/20 04:09:27;731274.00;2.44;1261.51;236048.00;0.79;407.95;;;;;21.80;1.00;;;;;;2280777;61;1066;-85
2022/05/20 04:11:57;117841080.00;392.80;66286180.00;75935.00;0.25;132.02;;;;;21.80;1.00;;;;;;2280765;61;1044;-87
2022/05/20 04:14:26;774322.00;2.58;1336.38;164195.00;0.55;284.27;;;;;21.90;1.00;;;;;;2280753;61;1442;-88
2022/05/20 04:16:57;277163.00;0.92;478.66;80725.00;0.27;140.29;;;;;21.90;1.00;;;;;;2280712;61;1238;-87
2022/05/20 04:19:25;245614.00;0.82;424.41;65884.00;0.22;114.65;;;;;22.00;1.00;;;;;;2280672;61;1911;-87
2022/05/20 04:21:56;214885.00;0.72;371.54;16944.00;0.06;29.98;;;;;22.00;1.00;;;;;;2280683;61;929;-88
2022/05/20 04:24:23;143387.00;0.48;248.41;0.00;0.00;0.62;;;;;21.90;1.00;;;;;;2280711;61;1392;-88
2022/05/20 04:26:51;148824.00;0.50;257.78;0.00;0.00;0.62;;;;;22.10;1.00;;;;;;2280723;61;990;-88
2022/05/20 04:29:19;478800.00;1.60;825.33;0.00;0.00;0.62;;;;;22.10;1.00;;;;;;2280671;61;1115;-86
2022/05/20 04:31:49;238145.00;0.79;411.56;0.00;0.00;0.62;;;;;22.10;1.00;;;;;;2280638;61;1575;-86
2022/05/20 04:34:17;468018.00;1.56;806.78;23669.00;0.08;41.62;;;;;21.80;1.00;;;;;;2280569;61;1579;-86
2022/05/20 04:36:45;56376.00;0.19;98.21;0.00;0.00;0.62;;;;;21.80;1.00;;;;;;2280655;61;1033;-87
2022/05/20 04:39:14;106790.00;0.36;185.29;0.00;0.00;0.62;;;;;22.00;1.00;;;;;;2280555;61;1982;-88
2022/05/20 04:47:14;164133.00;0.55;284.16;0.00;0.00;0.62;;;;;22.20;1.00;;;;;;2280692;61;673;-88
2022/05/20 04:49:42;123689.00;0.41;214.45;0.00;0.00;0.62;;;;;22.10;1.00;;;;;;2280578;61;1651;-88
2022/05/20 04:52:09;83136.00;0.28;144.45;0.00;0.00;0.62;;;;;22.20;1.00;;;;;;2280529;61;1575;-87
2022/05/20 04:54:52;480230.00;1.60;827.79;39700.00;0.13;69.37;;;;;22.30;1.00;;;;;;2280581;61;1656;-86
2022/05/20 04:57:23;360118.00;1.20;621.25;55264.00;0.18;96.29;;;;;22.30;1.00;;;;;;2280542;61;1726;-87
2022/05/20 04:59:51;1507139.00;5.02;2656.56;117842.00;0.39;204.36;;;;;22.70;1.00;;;;;;2280551;61;2013;-88
2022/05/20 05:02:18;1522692.00;5.08;2685.89;89633.00;0.30;155.67;;;;;22.90;1.00;;;;;;2280460;61;1787;-88
2022/05/20 05:04:45;1496541.00;4.99;2636.61;142960.00;0.48;247.67;;;;;23.10;1.00;;;;;;2280560;61;1025;-87
2022/05/20 05:07:12;860347.00;2.87;1486.58;106191.00;0.35;184.26;;;;;23.30;1.00;;;;;;2280573;61;1096;-86
2022/05/20 05:09:43;295103.00;0.98;509.50;75904.00;0.25;131.96;;;;;23.50;1.00;;;;;;2280592;61;1061;-88
2022/05/20 05:12:11;270206.00;0.90;466.70;74192.00;0.25;129.00;;;;;23.70;1.00;;;;;;2280545;61;1387;-87
2022/05/20 05:14:40;189724.00;0.63;328.23;69318.00;0.23;120.58;;;;;24.00;1.00;;;;;;2280589;61;1492;-88
2022/05/20 05:17:08;172172.00;0.57;298.01;74324.00;0.25;129.23;;;;;24.20;1.00;;;;;;2280547;61;1009;-88
2022/05/20 05:19:37;301973.00;1.01;521.31;100037.00;0.33;173.64;;;;;24.30;1.00;;;;;;2280374;61;1988;-87
2022/05/20 05:22:06;41855.00;0.14;73.10;0.00;0.00;0.62;;;;;24.70;1.00;;;;;;2280458;61;1696;-86
2022/05/20 05:24:34;408366.00;1.36;704.19;35439.00;0.12;62.00;;;;;24.80;1.00;;;;;;2280513;61;1566;-87
2022/05/20 05:27:04;225812.00;0.75;390.34;0.00;0.00;0.62;;;;;25.20;1.00;;;;;;2280480;61;1629;-88
2022/05/20 05:29:34;107784.00;0.36;187.01;1159.00;0.00;2.63;;;;;25.60;1.00;;;;;;2280362;61;1551;-86
2022/05/20 05:32:01;36046.00;0.12;63.05;0.00;0.00;0.62;;;;;25.60;1.00;;;;;;2280251;61;966;-87
2022/05/20 05:34:28;20293.00;0.07;35.78;0.00;0.00;0.62;;;;;26.10;1.00;;;;;;2280363;61;2198;-87
2022/05/20 05:36:54;136230.00;0.45;236.07;0.00;0.00;0.62;;;;;26.20;1.00;;;;;;2280432;61;1015;-89
2022/05/20 05:39:23;189622.00;0.63;328.06;0.00;0.00;0.62;;;;;26.20;1.00;;;;;;2280173;61;1927;-89
2022/05/20 05:41:51;243115.00;0.81;420.11;0.00;0.00;0.62;;;;;26.60;1.00;;;;;;2280408;61;1041;-87
2022/05/20 05:44:20;444624.00;1.48;766.54;25324.00;0.08;44.49;;;;;26.70;1.00;;;;;;2280304;61;1794;-90
2022/05/20 05:46:47;686422.00;2.29;1183.70;30408.00;0.10;53.29;;;;;27.30;1.00;;;;;;2280282;61;1742;-88
2022/05/20 05:49:14;1235267.00;4.12;2154.11;117294.00;0.39;203.41;;;;;27.80;1.00;;;;;;2280466;61;939;-89
2022/05/20 05:51:41;1614870.00;5.38;2861.19;123981.00;0.41;214.95;;;;;28.60;1.00;;;;;;2280429;61;1033;-88
2022/05/20 05:54:11;828557.00;2.76;1430.97;127938.00;0.43;221.77;;;;;29.70;1.00;;;;;;2280311;61;1371;-89
2022/05/20 05:56:40;120225456.00;400.75;70395656.00;119903712.00;399.68;69831488.00;;;;;30.20;1.00;;;;;;2280378;61;1040;-88
2022/05/20 05:59:10;147715.00;0.49;255.87;0.00;0.00;0.62;;;;;31.10;1.00;;;;;;2280392;61;1998;-87
2022/05/20 06:01:39;132504.00;0.44;229.65;0.00;0.00;0.62;;;;;32.00;1.00;;;;;;2279883;40;3571;-88
2022/05/20 06:04:06;223787.00;0.75;386.86;0.00;0.00;0.62;;;;;32.80;1.00;;;;;;2268619;61;1266;-87
2022/05/20 06:06:33;65044.00;0.22;113.20;0.00;0.00;0.62;;;;;33.00;1.00;;;;;;2268168;61;2188;-88
2022/05/20 06:09:00;137431.00;0.46;238.14;0.00;0.00;0.62;;;;;33.50;1.00;;;;;;2268127;61;1542;-87
2022/05/20 06:11:27;24365.00;0.08;42.83;0.00;0.00;0.62;;;;;34.50;1.00;;;;;;2268183;61;1111;-87
2022/05/20 06:13:54;77724.00;0.26;135.11;0.00;0.00;0.62;;;;;34.40;1.00;;;;;;2268241;61;1278;-86
2022/05/20 06:16:22;281211.00;0.94;485.62;0.00;0.00;0.62;;;;;34.50;1.00;;;;;;2268125;61;1571;-87
2022/05/20 06:18:52;241125.00;0.80;416.69;13643.00;0.05;24.26;;;;;35.00;1.00;;;;;;2268137;61;1927;-88
2022/05/20 06:21:19;275460.00;0.92;475.73;0.00;0.00;0.62;;;;;34.90;1.00;;;;;;2268120;61;1594;-87
2022/05/20 06:23:46;1628337.00;5.43;2887.02;87393.00;0.29;151.81;;;;;35.30;1.00;;;;;;2268207;61;1331;-88
2022/05/20 06:26:19;1595265.00;5.32;2823.69;138865.00;0.46;240.61;;;;;35.70;1.00;;;;;;2268131;61;1597;-87
2022/05/20 06:28:49;1070241.00;3.57;1857.29;70671.00;0.24;122.92;;;;;36.10;1.00;;;;;;2268204;61;1065;-88
2022/05/20 06:31:16;602427.00;2.01;1038.41;87919.00;0.29;152.71;;;;;36.00;1.00;;;;;;2268179;61;953;-88
2022/05/20 06:33:45;561341.00;1.87;967.51;64163.00;0.21;111.67;;;;;36.40;1.00;;;;;;2268133;61;1261;-86
2022/05/20 06:41:42;205138.00;0.68;354.77;51759.00;0.17;90.23;;;;;36.90;1.00;;;;;;2268157;61;639;-90
2022/05/20 06:44:10;435564.00;1.45;750.95;0.00;0.00;0.62;;;;;36.90;1.00;;;;;;2268352;61;1450;-87
2022/05/20 06:46:37;253104.00;0.84;437.29;35803.00;0.12;62.63;;;;;37.20;1.00;;;;;;2268733;61;2341;-87
2022/05/20 06:49:06;137143.00;0.46;237.65;0.00;0.00;0.62;;;;;37.70;1.00;;;;;;2268745;61;999;-89
2022/05/20 06:51:37;137896.00;0.46;238.94;0.00;0.00;0.62;;;;;37.40;1.00;;;;;;2268731;61;1622;-89
2022/05/20 06:54:06;375430.00;1.25;647.57;0.00;0.00;0.62;;;;;36.40;1.00;;;;;;2268805;61;1362;-89
2022/05/20 06:56:34;152407.00;0.51;263.96;0.00;0.00;0.62;;;;;36.50;1.00;;;;;;2268829;61;944;-89
2022/05/20 06:59:03;112909.00;0.38;195.85;0.00;0.00;0.62;;;;;35.90;1.00;;;;;;2268727;61;1982;-89
2022/05/20 07:01:30;310953.00;1.04;536.75;0.00;0.00;0.62;;;;;35.40;1.00;;;;;;2268710;61;1423;-90
2022/05/20 07:03:59;351731.00;1.17;606.84;43697.00;0.15;76.28;;;;;35.60;1.00;;;;;;2268744;61;1309;-89
2022/05/20 07:06:30;371891.00;1.24;641.49;0.00;0.00;0.62;;;;;35.80;1.00;;;;;;2268666;61;1503;-90
2022/05/20 07:08:58;29092.00;0.10;51.01;0.00;0.00;0.62;;;;;36.70;1.00;;;;;;2268652;61;1905;-88
2022/05/20 07:11:28;320688.00;1.07;553.48;33381.00;0.11;58.43;;;;;37.50;1.00;;;;;;2268659;61;1564;-89
2022/05/20 07:13:59;162418.00;0.54;281.21;0.00;0.00;0.62;;;;;38.00;1.00;;;;;;2268660;61;1379;-90
2022/05/20 07:16:31;371805.00;1.24;641.34;0.00;0.00;0.62;;;;;38.40;1.00;;;;;;2268739;61;1480;-87
2022/05/20 07:19:01;460192.00;1.53;793.31;741.00;0.00;1.90;;;;;38.60;1.00;;;;;;2268635;61;1995;-87
2022/05/20 07:21:29;1378827.00;4.60;2417.11;74800.00;0.25;130.05;;;;;38.70;1.00;;;;;;2268692;61;1448;-88
2022/05/20 07:23:59;1086364.00;3.62;1886.06;70122.00;0.23;121.97;;;;;39.00;1.00;;;;;;2268661;61;1588;-88
2022/05/20 07:26:27;567182.00;1.89;977.59;13693.00;0.05;24.35;;;;;39.10;1.00;;;;;;2268818;61;1035;-88
2022/05/20 07:28:55;375672.00;1.25;647.99;44716.00;0.15;78.05;;;;;38.80;1.00;;;;;;2268696;61;1825;-87
2022/05/20 07:31:24;358791.00;1.20;618.97;121318.00;0.40;210.36;;;;;38.70;1.00;;;;;;2268844;61;1038;-88
2022/05/20 07:33:55;342956.00;1.14;591.75;61583.00;0.21;107.21;;;;;39.10;1.00;;;;;;2268701;61;1573;-89
2022/05/20 07:36:23;416096.00;1.39;717.48;62127.00;0.21;108.15;;;;;39.10;1.00;;;;;;2268696;61;1714;-90
2022/05/20 07:38:52;166240.00;0.55;287.79;0.00;0.00;0.62;;;;;39.50;1.00;;;;;;2268693;61;1446;-89
2022/05/20 07:41:32;653438.00;2.18;1126.58;162149.00;0.54;280.74;;;;;39.70;1.00;;;;;;2268575;61;2019;-87
2022/05/20 07:44:02;67438.00;0.22;117.33;0.00;0.00;0.62;;;;;39.40;1.00;;;;;;2268647;61;1632;-88
2022/05/20 07:46:30;159207.00;0.53;275.67;0.00;0.00;0.62;;;;;39.30;1.00;;;;;;2268731;61;1042;-88
2022/05/20 07:48:57;332905.00;1.11;574.48;74994.00;0.25;130.39;;;;;39.30;1.00;;;;;;2268598;61;1530;-88
2022/05/20 07:51:27;154878.00;0.52;268.21;0.00;0.00;0.62;;;;;39.30;1.00;;;;;;2268551;61;1043;-86
2022/05/20 07:56:34;1331292.00;4.44;2329.49;0.00;0.00;0.62;;;;;39.10;1.00;;;;;;2273942;61;1299;-88
2022/05/20 07:59:08;213463.00;0.71;369.09;0.00;0.00;0.62;;;;;39.50;1.00;;;;;;2272574;61;1931;-88
2022/05/20 08:01:38;1266579.00;4.22;2211.07;135387.00;0.45;234.62;;;;;40.00;1.00;;;;;;2272430;61;3249;-86
2022/05/20 08:06:54;1048142.00;3.49;1817.93;190468.00;0.63;329.51;;;;;40.00;1.00;;;;;;2279479;39;3598;-86
2022/05/20 08:11:52;463674.00;1.55;799.31;0.00;0.00;0.62;;;;;40.40;1.00;;;;;;2273980;61;1426;-87
2022/05/20 08:14:19;419562.00;1.40;723.44;55569.00;0.19;96.82;;;;;40.60;1.00;;;;;;2281195;55;3782;-87
2022/05/20 08:16:46;110199.00;0.37;191.17;0.00;0.00;0.62;;;;;40.30;1.00;;;;;;2276580;61;1445;-86
2022/05/20 08:19:13;391171.00;1.30;674.63;60043.00;0.20;104.55;;;;;40.60;1.00;;;;;;2276704;61;999;-88
2022/05/20 08:21:41;925808.00;3.09;1601.49;43321.00;0.14;75.63;;;;;39.50;1.00;;;;;;2276622;61;1594;-87
2022/05/20 08:24:08;1405134.00;4.68;2465.85;93825.00;0.31;162.91;;;;;39.50;1.00;;;;;;2276555;61;1402;-87
2022/05/20 08:26:37;402970.00;1.34;694.91;74133.00;0.25;128.90;;;;;39.40;1.00;;;;;;2276436;61;1194;-89
2022/05/20 08:29:06;109409.00;0.36;189.81;45152.00;0.15;78.80;;;;;38.20;1.00;;;;;;2276630;61;1536;-90
2022/05/20 08:31:33;55949.00;0.19;97.47;0.00;0.00;0.62;;;;;38.30;1.00;;;;;;2276533;61;1492;-87
2022/05/20 08:36:32;984482.00;3.28;1705.01;14630.00;0.05;25.97;;;;;38.50;1.00;;;;;;2279056;61;1302;-90
2022/05/20 08:43:59;1123458.00;3.74;1952.43;55208.00;0.18;96.19;;;;;39.00;1.00;;;;;;2381346;39;3725;-86
2022/05/20 08:54:14;1254068.00;4.18;2188.29;59565.00;0.20;103.72;;;;;38.80;1.00;;;;;;2295948;55;3668;-85
2022/05/20 08:56:41;436469.00;1.45;752.51;54141.00;0.18;94.35;;;;;38.50;1.00;;;;;;2354364;55;3742;-87
2022/05/20 09:19:28;1457965.00;4.86;2564.27;124518.00;0.42;215.88;;;;;37.00;1.00;;;;;;2327053;40;3642;-87
2022/05/20 09:32:25;1127468.00;3.76;1959.62;64711.00;0.22;112.62;;;;;36.50;1.00;;;;;;2298061;40;3779;-89
2022/05/20 09:39:57;1119293.00;3.73;1944.96;0.00;0.00;0.62;;;;;36.20;1.00;;;;;;2433685;55;3644;-87
2022/05/20 09:50:06;1380144.00;4.60;2419.55;0.00;0.00;0.62;;;;;36.30;1.00;;;;;;2278510;61;1303;-90
2022/05/20 09:52:52;558793.00;1.86;963.12;177267.00;0.59;306.78;;;;;36.20;1.00;;;;;;2276967;61;1370;-92
2022/05/20 09:55:31;427628.00;1.43;737.31;370.00;0.00;1.26;;;;;35.90;1.00;;;;;;2276973;61;1713;-92
2022/05/20 09:58:14;697246.00;2.32;1202.46;68258.00;0.23;118.75;;;;;35.90;1.00;;;;;;2273199;61;936;-95
2022/05/20 10:00:47;520372.00;1.73;896.91;102312.00;0.34;177.56;;;;;35.60;1.00;;;;;;2276055;61;2010;-86
2022/05/20 10:24:29;1424042.00;4.75;2500.99;12332.00;0.04;21.99;;;;;35.60;1.00;;;;;;2084206;40;3436;-86
2022/05/20 10:48:35;1912774.00;6.38;3446.73;182098.00;0.61;315.10;;;;;35.30;1.00;;;;;;2269999;61;1365;-88
2022/05/20 11:01:22;179343.00;0.60;310.36;0.00;0.00;0.62;;;;;35.20;1.00;;;;;;2370333;40;1930;-88
2022/05/20 11:57:05;1424791.00;4.75;2502.38;0.00;0.00;0.62;;;;;35.70;1.00;;;;;;2279346;61;1427;-87
2022/05/20 12:30:01;1580436.00;5.27;2795.41;53674.00;0.18;93.54;;;;;36.30;1.00;;;;;;2274805;61;1344;-89
2022/05/20 13:05:25;1214404.00;4.05;2116.28;26952.00;0.09;47.31;;;;;35.30;1.00;;;;;;2275124;61;996;-89
2022/05/20 13:08:16;655684.00;2.19;1130.47;58973.00;0.20;102.70;;;;;35.50;1.00;;;;;;2471507;40;3624;31
2022/05/20 13:35:52;120288656.00;400.96;70506840.00;0.00;0.00;0.62;;;;;35.10;1.00;;;;;;2339475;55;3607;-88
2022/05/20 13:43:21;1436144.00;4.79;2523.53;21460.00;0.07;37.80;;;;;35.20;1.00;;;;;;2275000;61;1374;-91
2022/05/20 14:08:50;980195.00;3.27;1697.43;0.00;0.00;0.62;;;;;35.60;1.00;;;;;;2331786;40;3460;-86
2022/05/20 14:13:51;1182136.00;3.94;2057.96;18166.00;0.06;32.09;;;;;35.50;1.00;;;;;;2339031;55;3647;-89
2022/05/20 14:31:46;237936.00;0.79;411.20;0.00;0.00;0.62;;;;;36.50;1.00;;;;;;839746;40;2524;-87
2022/05/20 14:47:15;562649.00;1.88;969.77;61026.00;0.20;106.25;;;;;36.50;1.00;;;;;;634946;56;3066;-85
2022/05/20 14:49:48;750269.00;2.50;1294.53;60102.00;0.20;104.65;;;;;36.50;1.00;;;;;;2275799;61;1603;-88
2022/05/20 15:08:15;614117.00;2.05;1058.60;0.00;0.00;0.62;;;;;34.70;1.00;;;;;;2274576;61;1721;-85
2022/05/20 15:10:42;74444.00;0.25;129.44;0.00;0.00;0.62;;;;;35.10;1.00;;;;;;2272890;61;945;-86
2022/05/20 15:13:10;290428.00;0.97;501.47;89244.00;0.30;155.00;;;;;35.30;1.00;;;;;;2272916;61;1257;-87
2022/05/20 15:15:37;76377.00;0.25;132.78;0.00;0.00;0.62;;;;;35.30;1.00;;;;;;2272870;61;1121;-87
2022/05/20 15:18:07;301352.00;1.00;520.24;0.00;0.00;0.62;;;;;35.30;1.00;;;;;;2272895;61;989;-86
2022/05/20 15:20:41;11314.00;0.04;20.23;0.00;0.00;0.62;;;;;35.40;1.00;;;;;;2272752;61;2020;-86
2022/05/20 15:23:18;269423.00;0.90;465.35;11303.00;0.04;20.21;;;;;36.00;1.00;;;;;;2272809;61;2094;-88
2022/05/20 15:25:53;756714.00;2.52;1305.73;52835.00;0.18;92.09;;;;;36.40;1.00;;;;;;2272881;61;1103;-87
2022/05/20 15:36:36;351648.00;1.17;606.69;0.00;0.00;0.62;;;;;36.70;1.00;;;;;;2272644;61;689;-87
2022/05/20 15:39:07;1239243.00;4.13;2161.33;130158.00;0.43;225.60;;;;;35.50;1.00;;;;;;2272805;61;1033;-87
2022/05/20 15:41:34;791234.00;2.64;1365.84;63969.00;0.21;111.34;;;;;35.30;1.00;;;;;;2272746;61;2265;-86
2022/05/20 15:44:01;497208.00;1.66;857.02;116935.00;0.39;202.80;;;;;34.60;1.00;;;;;;2272798;61;1299;-86
2022/05/20 15:46:28;83630.00;0.28;145.31;0.00;0.00;0.62;;;;;34.20;1.00;;;;;;2272775;61;1045;-88
2022/05/20 15:48:55;77431.00;0.26;134.60;0.00;0.00;0.62;;;;;34.50;1.00;;;;;;2272826;61;1111;-89